createdAt,value
2022-11-18T00:01:23.593Z,98737.47
2022-11-18T00:03:53.474Z,98739.22
2022-11-18T00:06:24.452Z,98745.47
2022-11-18T00:08:53.637Z,98739.50
2022-11-18T00:11:43.335Z,98735.72
2022-11-18T00:14:21.556Z,98732.38
2022-11-18T00:16:54.686Z,98736.75
2022-11-18T00:19:26.551Z,98733.41
2022-11-18T00:21:55.680Z,98730.03
2022-11-18T00:24:24.920Z,98732.22
2022-11-18T00:26:55.448Z,98732.94
2022-11-18T00:29:28.259Z,98737.16
2022-11-18T00:31:57.160Z,98734.41
2022-11-18T00:34:26.576Z,98737.31
2022-11-18T00:36:55.508Z,98735.88
2022-11-18T00:39:26.237Z,98731.78
2022-11-18T00:42:18.189Z,98738.06
2022-11-18T00:44:46.280Z,98734.69
2022-11-18T00:47:14.604Z,98743.53
2022-11-18T00:49:42.718Z,98736.72
2022-11-18T00:52:12.471Z,98741.66
2022-11-18T00:54:40.996Z,98734.81
2022-11-18T00:57:11.348Z,98734.81
2022-11-18T00:59:39.734Z,98732.94
2022-11-18T01:02:08.576Z,98727.25
2022-11-18T01:04:41.202Z,98731.34
2022-11-18T01:07:10.836Z,98734.09
2022-11-18T01:09:39.803Z,98733.50
2022-11-18T01:12:29.587Z,98742.97
2022-11-18T01:14:59.866Z,98735.25
2022-11-18T01:17:31.502Z,98743.41
2022-11-18T01:20:00.184Z,98754.59
2022-11-18T01:22:28.712Z,98750.25
2022-11-18T01:24:57.871Z,98754.59
2022-11-18T01:27:32.115Z,98763.03
2022-11-18T01:30:04.229Z,98764.34
2022-11-18T01:32:32.735Z,98761.59
2022-11-18T01:35:01.925Z,98753.59
2022-11-18T01:37:30.790Z,98757.22
2022-11-18T01:40:00.590Z,98745.72
2022-11-18T01:42:30.516Z,98763.31
2022-11-18T01:45:02.440Z,98768.69
2022-11-18T01:47:37.076Z,98761.72
2022-11-18T01:50:07.726Z,98767.25
2022-11-18T01:52:38.272Z,98763.75
2022-11-18T01:55:12.357Z,98771.63
2022-11-18T01:57:45.456Z,98770.28
2022-11-18T02:00:16.172Z,98773.81
2022-11-18T02:02:44.581Z,98778.31
2022-11-18T02:05:13.542Z,98776.28
2022-11-18T02:07:44.549Z,98785.84
2022-11-18T02:10:21.246Z,98772.03
2022-11-18T02:12:51.443Z,98773.50
2022-11-18T02:15:26.875Z,98786.59
2022-11-18T02:18:04.502Z,98780.31
2022-11-18T02:20:35.954Z,98782.38
2022-11-18T02:24:04.852Z,98782.38
2022-11-18T02:27:09.092Z,98784.00
2022-11-18T02:29:46.704Z,98792.28
2022-11-18T02:32:20.268Z,98795.75
2022-11-18T02:34:52.275Z,98797.06
2022-11-18T02:37:28.615Z,98797.22
2022-11-18T02:40:01.577Z,98793.00
2022-11-18T02:42:34.438Z,98788.19
2022-11-18T02:45:10.845Z,98789.50
2022-11-18T02:47:40.823Z,98795.03
2022-11-18T02:50:13.149Z,98793.72
2022-11-18T02:52:44.353Z,98791.53
2022-11-18T02:55:15.477Z,98792.28
2022-11-18T02:57:49.198Z,98789.38
2022-11-18T03:00:19.637Z,98791.97
2022-11-18T03:02:49.876Z,98798.94
2022-11-18T03:05:25.050Z,98798.09
2022-11-18T03:07:57.594Z,98805.66
2022-11-18T03:10:41.648Z,98814.97
2022-11-18T03:13:19.004Z,98808.84
2022-11-18T03:15:59.271Z,98808.25
2022-11-18T03:18:33.330Z,98820.03
2022-11-18T03:21:09.249Z,98821.50
2022-11-18T03:23:42.387Z,98822.94
2022-11-18T03:26:15.246Z,98827.91
2022-11-18T03:28:48.481Z,98830.81
2022-11-18T03:31:25.386Z,98833.00
2022-11-18T03:33:59.585Z,98828.19
2022-11-18T03:36:34.935Z,98833.88
2022-11-18T03:39:07.511Z,98837.38
2022-11-18T03:41:41.398Z,98837.38
2022-11-18T03:44:15.454Z,98846.97
2022-11-18T03:46:48.337Z,98842.88
2022-11-18T03:49:23.029Z,98843.63
2022-11-18T03:51:55.443Z,98844.38
2022-11-18T03:54:29.036Z,98845.81
2022-11-18T03:57:02.729Z,98854.25
2022-11-18T03:59:37.476Z,98856.84
2022-11-18T04:02:13.169Z,98850.03
2022-11-18T04:04:43.405Z,98864.56
2022-11-18T04:07:21.921Z,98855.56
2022-11-18T04:10:00.901Z,98861.81
2022-11-18T04:12:32.851Z,98864.56
2022-11-18T04:15:01.174Z,98870.41
2022-11-18T04:17:30.734Z,98861.66
2022-11-18T04:19:58.985Z,98869.25
2022-11-18T04:22:27.078Z,98868.50
2022-11-18T04:24:55.950Z,98869.09
2022-11-18T04:27:24.647Z,98860.66
2022-11-18T04:29:53.235Z,98864.88
2022-11-18T04:32:22.397Z,98874.63
2022-11-18T04:34:51.929Z,98875.94
2022-11-18T04:37:20.187Z,98877.69
2022-11-18T04:39:48.701Z,98870.53
2022-11-18T04:42:18.511Z,98875.03
2022-11-18T04:44:48.027Z,98878.06
2022-11-18T04:47:16.516Z,98882.56
2022-11-18T04:49:45.044Z,98883.03
2022-11-18T04:52:16.216Z,98879.38
2022-11-18T04:54:45.009Z,98891.59
2022-11-18T04:57:13.681Z,98898.41
2022-11-18T04:59:45.703Z,98899.75
2022-11-18T05:02:15.674Z,98901.94
2022-11-18T05:04:45.079Z,98910.34
2022-11-18T05:07:16.465Z,98901.50
2022-11-18T05:09:45.168Z,98909.50
2022-11-18T05:12:32.272Z,98915.16
2022-11-18T05:15:00.558Z,98906.31
2022-11-18T05:17:29.568Z,98916.75
2022-11-18T05:19:58.661Z,98912.72
2022-11-18T05:22:30.640Z,98919.69
2022-11-18T05:24:58.920Z,98926.69
2022-11-18T05:27:29.890Z,98918.38
2022-11-18T05:29:58.392Z,98924.63
2022-11-18T05:32:26.826Z,98930.47
2022-11-18T05:34:55.409Z,98931.94
2022-11-18T05:37:23.628Z,98939.50
2022-11-18T05:39:53.404Z,98941.25
2022-11-18T05:42:39.012Z,98946.78
2022-11-18T05:45:08.825Z,98945.19
2022-11-18T05:47:59.344Z,98942.13
2022-11-18T05:50:27.426Z,98949.25
2022-11-18T05:52:57.385Z,98948.69
2022-11-18T05:55:30.797Z,98952.00
2022-11-18T05:58:00.117Z,98956.81
2022-11-18T06:00:29.581Z,98959.84
2022-11-18T06:02:58.922Z,98960.72
2022-11-18T06:05:27.618Z,98975.56
2022-11-18T06:07:58.480Z,98963.78
2022-11-18T06:10:35.156Z,98982.69
2022-11-18T06:13:07.781Z,98981.19
2022-11-18T06:15:40.159Z,98981.94
2022-11-18T06:18:13.019Z,98988.63
2022-11-18T06:20:42.901Z,98988.03
2022-11-18T06:23:11.862Z,98999.31
2022-11-18T06:25:43.138Z,99009.44
2022-11-18T06:28:16.093Z,99013.06
2022-11-18T06:30:44.621Z,99008.38
2022-11-18T06:33:15.562Z,99027.13
2022-11-18T06:35:45.887Z,99028.56
2022-11-18T06:38:14.393Z,99036.41
2022-11-18T06:40:44.833Z,99044.25
2022-11-18T06:43:31.573Z,99039.72
2022-11-18T06:46:19.366Z,99051.94
2022-11-18T06:48:47.574Z,99069.81
2022-11-18T06:51:15.917Z,99065.31
2022-11-18T06:53:45.238Z,99071.13
2022-11-18T06:56:16.835Z,99077.22
2022-11-18T06:58:46.934Z,99084.38
2022-11-18T07:01:17.137Z,99087.38
2022-11-18T07:03:46.958Z,99089.97
2022-11-18T07:06:16.252Z,99087.13
2022-11-18T07:08:46.644Z,99093.50
2022-11-18T07:11:18.618Z,99098.69
2022-11-18T07:13:47.874Z,99108.75
2022-11-18T07:16:20.063Z,99105.97
2022-11-18T07:18:48.937Z,99108.13
2022-11-18T07:21:19.845Z,99113.16
2022-11-18T07:23:49.108Z,99111.00
2022-11-18T07:26:19.180Z,99113.16
2022-11-18T07:28:47.787Z,99125.19
2022-11-18T07:31:18.281Z,99138.84
2022-11-18T07:33:49.374Z,99136.81
2022-11-18T07:36:23.440Z,99142.75
2022-11-18T07:38:54.231Z,99143.91
2022-11-18T07:41:28.385Z,99149.88
2022-11-18T07:44:01.043Z,99148.28
2022-11-18T07:46:33.118Z,99155.25
2022-11-18T07:49:04.176Z,99164.13
2022-11-18T07:51:37.774Z,99166.72
2022-11-18T07:54:08.771Z,99167.19
2022-11-18T07:56:38.593Z,99168.72
2022-11-18T07:59:06.990Z,99176.38
2022-11-18T08:01:35.220Z,99177.81
2022-11-18T08:04:09.081Z,99175.63
2022-11-18T08:06:38.560Z,99183.91
2022-11-18T08:09:11.440Z,99184.50
2022-11-18T08:11:43.167Z,99187.88
2022-11-18T08:14:11.547Z,99190.38
2022-11-18T08:16:41.355Z,99192.34
2022-11-18T08:19:09.900Z,99196.66
2022-11-18T08:21:40.744Z,99202.66
2022-11-18T08:24:12.274Z,99199.34
2022-11-18T08:26:40.620Z,99205.75
2022-11-18T08:29:10.668Z,99208.00
2022-11-18T08:31:39.458Z,99215.31
2022-11-18T08:34:08.784Z,99210.28
2022-11-18T08:36:39.985Z,99214.19
2022-11-18T08:39:10.136Z,99210.75
2022-11-18T08:41:40.687Z,99215.81
2022-11-18T08:44:14.327Z,99218.00
2022-11-18T08:46:46.071Z,99211.63
2022-11-18T08:49:15.622Z,99212.84
2022-11-18T08:51:45.908Z,99205.28
2022-11-18T08:54:14.697Z,99218.75
2022-11-18T08:56:43.434Z,99221.09
2022-11-18T08:59:14.663Z,99218.81
2022-11-18T09:01:43.907Z,99223.47
2022-11-18T09:04:12.616Z,99227.78
2022-11-18T09:06:41.248Z,99226.53
2022-11-18T09:09:13.353Z,99224.66
2022-11-18T09:11:43.326Z,99235.16
2022-11-18T09:17:03.357Z,99232.00
2022-11-18T09:19:48.336Z,99235.31
2022-11-18T09:22:16.803Z,99235.06
2022-11-18T09:24:45.006Z,99243.03
2022-11-18T09:27:17.113Z,99241.16
2022-11-18T09:29:58.741Z,99247.41
2022-11-18T09:32:27.626Z,99243.91
2022-11-18T09:34:57.322Z,99244.50
2022-11-18T09:37:27.036Z,99250.97
2022-11-18T09:39:56.200Z,99249.19
2022-11-18T09:42:37.508Z,99250.78
2022-11-18T09:45:24.309Z,99249.09
2022-11-18T09:47:58.333Z,99259.81
2022-11-18T09:53:21.356Z,99262.56
2022-11-18T09:55:52.173Z,99273.41
2022-11-18T09:58:33.625Z,99263.78
2022-11-18T10:01:04.936Z,99260.88
2022-11-18T10:03:37.400Z,99261.47
2022-11-18T10:06:23.542Z,99267.56
2022-11-18T10:09:06.993Z,99277.63
2022-11-18T10:11:43.364Z,99266.69
2022-11-18T10:14:27.118Z,99261.28
2022-11-18T10:17:07.179Z,99274.53
2022-11-18T10:19:46.788Z,99277.81
2022-11-18T10:22:24.799Z,99279.13
2022-11-18T10:24:56.041Z,99280.19
2022-11-18T10:27:27.595Z,99287.00
2022-11-18T10:29:59.398Z,99296.00
2022-11-18T10:32:33.789Z,99290.22
2022-11-18T10:35:03.726Z,99288.88
2022-11-18T10:38:05.700Z,99293.91
2022-11-18T10:40:28.570Z,99296.25
2022-11-18T10:43:06.664Z,99301.41
2022-11-18T10:45:40.876Z,99302.13
2022-11-18T10:48:22.177Z,99289.75
2022-11-18T10:50:56.037Z,99296.88
2022-11-18T10:53:50.405Z,99302.44
2022-11-18T10:56:18.851Z,99298.38
2022-11-18T10:58:52.736Z,99299.81
2022-11-18T11:01:23.766Z,99294.13
2022-11-18T11:04:03.070Z,99298.34
2022-11-18T11:06:38.840Z,99289.03
2022-11-18T11:09:10.057Z,99290.78
2022-11-18T11:11:44.017Z,99297.47
2022-11-18T11:14:20.953Z,99291.78
2022-11-18T11:16:58.738Z,99290.78
2022-11-18T11:19:37.994Z,99294.13
2022-11-18T11:22:11.210Z,99292.81
2022-11-18T11:24:40.074Z,99292.38
2022-11-18T11:30:21.588Z,99296.44
2022-11-18T11:33:23.485Z,99300.81
2022-11-18T11:36:07.133Z,99298.50
2022-11-18T11:38:51.238Z,99308.97
2022-11-18T11:41:24.395Z,99306.66
2022-11-18T11:44:11.964Z,99310.59
2022-11-18T11:51:01.958Z,99306.09
2022-11-18T11:54:09.060Z,99311.94
2022-11-18T11:56:46.804Z,99300.69
2022-11-18T11:59:26.489Z,99310.88
2022-11-18T12:02:34.157Z,99311.47
2022-11-18T12:05:12.732Z,99315.25
2022-11-18T12:07:46.611Z,99305.91
2022-11-18T12:10:45.206Z,99309.78
2022-11-18T12:13:33.651Z,99311.28
2022-11-18T12:16:13.842Z,99308.38
2022-11-18T12:18:50.251Z,99315.09
2022-11-18T12:21:53.662Z,99318.91
2022-11-18T12:24:34.561Z,99314.09
2022-11-18T12:27:13.231Z,99315.09
2022-11-18T12:29:55.110Z,99304.53
2022-11-18T12:32:34.658Z,99311.47
2022-11-18T12:35:09.017Z,99312.03
2022-11-18T12:37:59.699Z,99315.59
2022-11-18T12:40:37.860Z,99313.53
2022-11-18T12:43:30.526Z,99322.88
2022-11-18T12:46:01.467Z,99318.78
2022-11-18T12:48:36.344Z,99318.78
2022-11-18T12:51:27.444Z,99328.25
2022-11-18T12:53:55.720Z,99329.69
2022-11-18T12:56:27.471Z,99330.13
2022-11-18T12:59:00.002Z,99339.91
2022-11-18T13:01:32.875Z,99340.66
2022-11-18T13:04:08.915Z,99327.69
2022-11-18T13:06:39.524Z,99324.63
2022-11-18T13:09:17.141Z,99334.34
2022-11-18T13:11:53.089Z,99335.84
2022-11-18T13:14:44.614Z,99333.03
2022-11-18T13:17:46.896Z,99327.88
2022-11-18T13:20:35.473Z,99332.84
2022-11-18T13:23:44.822Z,99333.00
2022-11-18T13:26:18.585Z,99341.34
2022-11-18T13:29:06.895Z,99336.56
2022-11-18T13:31:44.847Z,99341.66
2022-11-18T13:34:19.864Z,99338.84
2022-11-18T13:36:52.025Z,99337.41
2022-11-18T13:39:24.245Z,99333.91
2022-11-18T13:42:02.062Z,99337.16
2022-11-18T13:44:34.500Z,99341.00
2022-11-18T13:47:12.813Z,99341.78
2022-11-18T13:49:54.176Z,99346.59
2022-11-18T13:52:28.570Z,99344.31
2022-11-18T13:55:00.058Z,99350.03
2022-11-18T13:57:30.515Z,99341.69
2022-11-18T14:00:05.431Z,99345.00
2022-11-18T14:02:46.474Z,99348.03
2022-11-18T14:05:21.890Z,99347.41
2022-11-18T14:08:06.142Z,99343.75
2022-11-18T14:10:42.131Z,99354.66
2022-11-18T14:13:25.861Z,99345.78
2022-11-18T14:15:55.801Z,99354.38
2022-11-18T14:18:34.841Z,99352.47
2022-11-18T14:21:05.632Z,99353.47
2022-11-18T14:23:37.719Z,99354.06
2022-11-18T14:26:08.181Z,99358.56
2022-11-18T14:28:37.853Z,99364.66
2022-11-18T14:31:07.402Z,99359.44
2022-11-18T14:33:38.586Z,99361.75
2022-11-18T14:36:15.240Z,99359.75
2022-11-18T14:39:04.523Z,99361.75
2022-11-18T14:41:50.554Z,99364.50
2022-11-18T14:44:21.461Z,99368.25
2022-11-18T14:46:55.499Z,99362.09
2022-11-18T14:49:27.731Z,99370.34
2022-11-18T14:51:58.611Z,99376.00
2022-11-18T14:54:30.750Z,99372.44
2022-11-18T14:57:02.078Z,99384.34
2022-11-18T14:59:31.000Z,99380.78
2022-11-18T15:02:03.640Z,99385.97
2022-11-18T15:04:33.903Z,99390.34
2022-11-18T15:07:04.842Z,99386.53
2022-11-18T15:09:35.983Z,99389.56
2022-11-18T15:12:06.325Z,99387.03
2022-11-18T15:14:35.687Z,99383.63
2022-11-18T15:17:05.363Z,99392.13
2022-11-18T15:19:38.167Z,99393.69
2022-11-18T15:22:07.646Z,99398.97
2022-11-18T15:24:36.056Z,99385.63
2022-11-18T15:27:05.547Z,99396.84
2022-11-18T15:29:33.844Z,99399.75
2022-11-18T15:36:13.300Z,99413.41
2022-11-18T15:38:42.155Z,99422.13
2022-11-18T15:41:16.137Z,99415.75
2022-11-18T15:43:44.472Z,99414.16
2022-11-18T15:46:13.355Z,99419.16
2022-11-18T15:48:41.893Z,99421.25
2022-11-18T15:51:12.285Z,99427.34
2022-11-18T15:53:41.272Z,99422.63
2022-11-18T15:56:17.126Z,99425.03
2022-11-18T15:58:45.499Z,99419.88
2022-11-18T16:01:13.739Z,99440.84
2022-11-18T16:03:42.591Z,99432.72
2022-11-18T16:06:15.424Z,99437.47
2022-11-18T16:08:44.482Z,99435.25
2022-11-18T16:11:31.560Z,99441.50
2022-11-18T16:14:03.815Z,99448.09
2022-11-18T16:16:34.229Z,99450.84
2022-11-18T16:19:06.221Z,99449.56
2022-11-18T16:21:39.000Z,99454.53
2022-11-18T16:24:11.645Z,99457.09
2022-11-18T16:26:42.107Z,99457.84
2022-11-18T16:29:12.430Z,99456.75
2022-11-18T16:31:41.957Z,99461.50
2022-11-18T16:34:11.681Z,99460.78
2022-11-18T16:36:45.011Z,99467.78
2022-11-18T16:39:16.014Z,99471.06
2022-11-18T16:41:45.780Z,99474.38
2022-11-18T16:44:17.646Z,99467.06
2022-11-18T16:46:48.669Z,99473.69
2022-11-18T16:49:19.657Z,99477.56
2022-11-18T16:51:55.023Z,99484.22
2022-11-18T16:54:27.306Z,99492.31
2022-11-18T16:56:57.335Z,99487.16
2022-11-18T16:59:29.144Z,99484.06
2022-11-18T17:01:59.793Z,99496.56
2022-11-18T17:04:29.628Z,99497.84
2022-11-18T17:07:00.691Z,99495.44
2022-11-18T17:09:29.726Z,99491.22
2022-11-18T17:12:03.262Z,99493.25
2022-11-18T17:14:33.993Z,99497.09
2022-11-18T17:17:03.072Z,99499.34
2022-11-18T17:19:31.554Z,99495.50
2022-11-18T17:22:04.234Z,99499.56
2022-11-18T17:24:33.020Z,99500.81
2022-11-18T17:27:05.124Z,99506.53
2022-11-18T17:29:35.058Z,99502.84
2022-11-18T17:32:03.727Z,99499.19
2022-11-18T17:34:37.232Z,99502.47
2022-11-18T17:37:07.395Z,99511.31
2022-11-18T17:39:38.426Z,99507.66
2022-11-18T17:42:17.776Z,99516.47
2022-11-18T17:44:46.658Z,99511.34
2022-11-18T17:47:14.861Z,99514.63
2022-11-18T17:49:44.762Z,99514.78
2022-11-18T17:52:15.814Z,99517.94
2022-11-18T17:54:43.907Z,99517.78
2022-11-18T17:57:12.357Z,99518.69
2022-11-18T17:59:40.522Z,99522.75
2022-11-18T18:02:14.973Z,99524.59
2022-11-18T18:04:43.136Z,99527.91
2022-11-18T18:07:11.839Z,99535.44
2022-11-18T18:09:41.632Z,99534.34
2022-11-18T18:12:24.672Z,99535.06
2022-11-18T18:14:52.876Z,99545.53
2022-11-18T18:17:23.386Z,99543.72
2022-11-18T18:19:52.913Z,99550.13
2022-11-18T18:22:21.309Z,99546.28
2022-11-18T18:24:51.254Z,99549.59
2022-11-18T18:27:20.694Z,99547.75
2022-11-18T18:29:49.156Z,99560.06
2022-11-18T18:32:18.799Z,99562.81
2022-11-18T18:34:50.576Z,99563.53
2022-11-18T18:37:23.146Z,99560.59
2022-11-18T18:39:54.779Z,99564.47
2022-11-18T18:42:24.949Z,99566.50
2022-11-18T18:45:14.580Z,99562.44
2022-11-18T18:47:43.879Z,99569.78
2022-11-18T18:50:12.589Z,99562.81
2022-11-18T18:52:41.154Z,99564.28
2022-11-18T18:55:11.175Z,99566.47
2022-11-18T18:57:39.851Z,99561.50
2022-11-18T19:00:10.565Z,99569.78
2022-11-18T19:02:40.098Z,99561.50
2022-11-18T19:05:12.288Z,99574.00
2022-11-18T19:07:42.839Z,99570.50
2022-11-18T19:10:13.858Z,99572.34
2022-11-18T19:12:49.513Z,99558.56
2022-11-18T19:15:19.978Z,99558.38
2022-11-18T19:17:49.086Z,99565.38
2022-11-18T19:20:38.421Z,99569.25
2022-11-18T19:23:10.470Z,99573.84
2022-11-18T19:25:40.323Z,99577.34
2022-11-18T19:28:11.335Z,99586.53
2022-11-18T19:30:39.683Z,99585.94
2022-11-18T19:33:08.079Z,99589.28
2022-11-18T19:35:39.933Z,99593.31
2022-11-18T19:38:08.055Z,99598.47
2022-11-18T19:40:36.716Z,99592.56
2022-11-18T19:43:06.812Z,99596.63
2022-11-18T19:45:35.085Z,99605.25
2022-11-18T19:48:05.282Z,99594.38
2022-11-18T19:50:33.655Z,99594.03
2022-11-18T19:53:25.626Z,99598.44
2022-11-18T19:55:55.471Z,99594.75
2022-11-18T19:58:25.814Z,99596.38
2022-11-18T20:00:54.656Z,99598.59
2022-11-18T20:03:23.476Z,99596.22
2022-11-18T20:05:55.462Z,99602.06
2022-11-18T20:08:25.867Z,99594.72
2022-11-18T20:10:54.959Z,99600.97
2022-11-18T20:13:23.577Z,99600.59
2022-11-18T20:15:53.642Z,99610.31
2022-11-18T20:18:25.229Z,99605.00
2022-11-18T20:20:53.858Z,99613.44
2022-11-18T20:23:22.731Z,99614.19
2022-11-18T20:25:50.920Z,99616.94
2022-11-18T20:28:24.032Z,99624.66
2022-11-18T20:30:59.650Z,99619.88
2022-11-18T20:33:28.434Z,99619.88
2022-11-18T20:35:57.185Z,99617.13
2022-11-18T20:38:25.731Z,99620.97
2022-11-18T20:40:53.908Z,99624.47
2022-11-18T20:43:22.094Z,99628.72
2022-11-18T20:45:55.963Z,99633.47
2022-11-18T20:48:24.540Z,99630.34
2022-11-18T20:50:52.757Z,99634.56
2022-11-18T20:53:22.289Z,99631.63
2022-11-18T20:55:50.910Z,99632.94
2022-11-18T20:58:20.485Z,99627.41
2022-11-18T21:00:49.084Z,99634.38
2022-11-18T21:03:21.178Z,99639.75
2022-11-18T21:05:50.019Z,99637.00
2022-11-18T21:08:19.340Z,99643.25
2022-11-18T21:10:55.612Z,99639.56
2022-11-18T21:13:41.514Z,99630.00
2022-11-18T21:16:09.926Z,99629.81
2022-11-18T21:18:40.490Z,99634.03
2022-11-18T21:21:26.670Z,99639.00
2022-11-18T21:23:56.729Z,99636.06
2022-11-18T21:26:26.657Z,99635.50
2022-11-18T21:28:58.398Z,99637.34
2022-11-18T21:31:27.497Z,99639.56
2022-11-18T21:33:59.072Z,99638.09
2022-11-18T21:36:29.608Z,99635.31
2022-11-18T21:38:59.215Z,99636.81
2022-11-18T21:41:29.737Z,99639.75
2022-11-18T21:44:05.385Z,99641.59
2022-11-18T21:46:35.077Z,99645.09
2022-11-18T21:49:19.868Z,99657.56
2022-11-18T21:51:48.196Z,99651.88
2022-11-18T21:54:18.244Z,99649.13
2022-11-18T21:56:48.564Z,99649.31
2022-11-18T21:59:18.046Z,99648.94
2022-11-18T22:01:47.032Z,99650.25
2022-11-18T22:04:30.816Z,99650.78
2022-11-18T22:06:59.371Z,99653.75
2022-11-18T22:09:32.859Z,99658.34
2022-11-18T22:12:07.715Z,99658.72
2022-11-18T22:14:36.628Z,99662.75
2022-11-18T22:17:05.623Z,99657.97
2022-11-18T22:19:35.865Z,99653.94
2022-11-18T22:22:09.030Z,99658.91
2022-11-18T22:24:44.983Z,99645.84
2022-11-18T22:27:13.172Z,99654.13
2022-11-18T22:29:42.737Z,99655.78
2022-11-18T22:32:11.149Z,99652.84
2022-11-18T22:34:45.911Z,99650.28
2022-11-18T22:37:18.894Z,99644.75
2022-11-18T22:39:47.828Z,99650.28
2022-11-18T22:42:36.584Z,99651.19
2022-11-18T22:45:05.068Z,99643.09
2022-11-18T22:47:36.943Z,99638.88
2022-11-18T22:50:11.225Z,99645.50
2022-11-18T22:52:48.195Z,99643.84
2022-11-18T22:55:16.487Z,99650.63
2022-11-18T22:57:46.222Z,99651.38
2022-11-18T23:00:19.125Z,99650.09
2022-11-18T23:02:49.942Z,99656.53
2022-11-18T23:05:19.641Z,99657.25
2022-11-18T23:07:49.487Z,99660.75
2022-11-18T23:10:20.238Z,99663.88
2022-11-18T23:13:08.425Z,99675.81
2022-11-18T23:15:39.437Z,99668.66
2022-11-18T23:18:11.823Z,99674.53
2022-11-18T23:20:43.962Z,99671.41
2022-11-18T23:23:12.347Z,99675.63
2022-11-18T23:25:41.012Z,99677.84
2022-11-18T23:28:11.777Z,99676.72
2022-11-18T23:30:41.677Z,99680.22
2022-11-18T23:33:10.859Z,99680.41
2022-11-18T23:35:39.779Z,99683.34
2022-11-18T23:38:09.294Z,99681.50
2022-11-18T23:40:42.001Z,99676.19
2022-11-18T23:43:10.259Z,99683.34
2022-11-18T23:45:38.672Z,99674.53
2022-11-18T23:48:07.233Z,99682.41
2022-11-18T23:50:40.060Z,99678.53
2022-11-18T23:53:17.007Z,99684.06
2022-11-18T23:55:46.553Z,99680.03
2022-11-18T23:58:17.648Z,99686.28
